Juneau Airport (JNU)

 

Airport Diagram
Current Weather/Forecast (MVFR Conditions)
METAR PAJN 312153Z 11008KT 10SM SCT006 BKN011 OVC043 06/05 A2936 RMK AO2 SLP942 T00610050
TAF PAJN 311734Z 3118/0118 06006KT 6SM -SHRA BR FEW007 SCT025 OVC035 FM312100 11006KT 6SM -SHRA BR OVC025 FM010000 09008KT 6SM -SHRA BKN015 OVC025 FM011600 11008KT 5SM -RA BR OVC015 WS020/26035KT

All Charts

Inbound Traffic (Arrivals)

No inbound traffic.


Outbound Traffic (Departures)

No outbound traffic.